หน้าหลัก
METAR-TAF:

METAR-TAF

ท่าอากาศยาน :

Stornoway, สกอตแลนด์

ละติจูด: 58-13N, ลองจิจูด: 006-19W, ความสูง: 9 ม.

การสังเกตสภาพอากาศปัจจุบัน

รายงานได้ทำขึ้นเมื่อ 38 นาทีที่แล้ว ณ เวลา 00:50 UTC
ลม 1 นอตจากตะวันตก/ตะวันตกเฉียงใต้
อุณหภูมิ 6°C
ความชื้น 93%
ความกดอากาศ 1022 hPa
ทัศนวิสัย 10 กม. หรือมากกว่า

METAR: EGPO 190050Z AUTO 25001KT 9999 NCD 06/05 Q1022

เวลา: 02:28 (01:28 UTC)

การพยากรณ์

รายงานได้ทำขึ้นเมื่อ 2 ชั่วโมงและ 31 นาทีที่แล้ว ณ เวลา 22:57 UTC
การพยากรณ์มีผลตั้งแต่วันที่ 19 ณ เวลา 00 UTC จนถึงวันที่ 19 ณ เวลา 09 UTC
ลม 3 นอตจากทิศทางซึ่งแปรผันได้
ทัศนวิสัย 10 กม. หรือมากกว่า
มีเมฆกระจายเป็นบางส่วนที่ความสูง 3500 ฟุต
กำลังกลายเป็น
ตั้งแต่วันที่ 19 ณ เวลา 03 UTC จนถึงวันที่ 19 ณ เวลา 06 UTC
ลม 12 นอตจากใต้/ตะวันตกเฉียงใต้

TAF: EGPO 182257Z 1900/1909 VRB03KT 9999 SCT035 BECMG 1903/1906 21012KT

สังเกตการณ์สภาพอากาศและพยากรณ์อากาศของสนามบินมากกว่า 4000 แห่ง (รายงาน METAR และ TAF).

สถานีที่ดูได้จะแสดงไว้ด้วยจุดสีเหลืองและสีแดงบนแผนที่.

เลื่อนเมาส์ไปเหนือจุดเพื่อดูชื่อสถานี.

แล้วคลิกเพื่อดูสังเกตการณ์และการพยากรณ์สภาพอากาศ.

ในการเปลี่ยนแผนที่: คลิกที่ปุ่มสีเขียวที่มีกากบาทสีดำเพื่อซูมเข้า; ที่ปุ่มสีเขียวที่มีขีดเพื่อซูมออก; หรือที่ลูกศรสีเขียวเพื่อไปยังแผนที่ที่อยู่ติดกัน.


METAR-TAF: